Time;durP1;ratioP1;P1;durP2;ratioP2;P2;SDS_P1;SDS_P2;PMS_P1;PMS_P2;Temp;Humidity;BMP_temperature;BMP_pressure;BME280_temperature;BME280_humidity;BME280_pressure;Samples;Min_cycle;Max_cycle;Signal;HPM_P1;HPM_P2
2022/01/29 00:01:20;;;;;;;69.82;52.30;;;6.70;99.90;;;;;;5132406;27;20503;-80
2022/01/29 00:03:46;;;;;;;72.03;53.13;;;6.70;99.90;;;;;;5133715;27;20126;-80
2022/01/29 00:06:12;;;;;;;68.65;51.92;;;6.70;99.90;;;;;;5132528;28;20421;-79
2022/01/29 00:08:38;;;;;;;69.78;50.85;;;6.70;99.90;;;;;;5140974;27;20126;-79
2022/01/29 00:11:11;;;;;;;71.55;52.58;;;6.80;99.90;;;;;;5133067;27;20475;-79
2022/01/29 00:13:37;;;;;;;70.38;51.90;;;6.80;99.90;;;;;;5133242;27;20046;-80
2022/01/29 00:16:03;;;;;;;70.45;51.10;;;6.80;99.90;;;;;;5131699;27;20132;-79
2022/01/29 00:18:28;;;;;;;70.85;53.00;;;6.80;99.90;;;;;;5142378;27;20503;-80
2022/01/29 00:20:54;;;;;;;70.70;51.45;;;6.80;99.90;;;;;;5132810;27;20450;-79
2022/01/29 00:23:19;;;;;;;70.68;53.58;;;6.80;99.90;;;;;;5154855;27;20059;-79
2022/01/29 00:25:45;;;;;;;68.03;51.50;;;6.80;99.90;;;;;;5127567;28;20039;-79
2022/01/29 00:28:12;;;;;;;71.15;52.28;;;6.80;99.90;;;;;;5130972;27;20039;-79
2022/01/29 00:30:42;;;;;;;68.03;51.45;;;6.80;99.90;;;;;;5135563;27;20083;-79
2022/01/29 00:33:11;;;;;;;66.63;51.03;;;6.80;99.90;;;;;;5130721;27;20087;-79
2022/01/29 00:35:38;;;;;;;64.30;50.30;;;6.80;99.90;;;;;;5132538;27;20079;-80
2022/01/29 00:38:07;;;;;;;65.15;51.00;;;6.80;99.90;;;;;;5139549;27;20099;-79
2022/01/29 00:40:36;;;;;;;69.88;50.40;;;6.80;99.90;;;;;;5139169;27;20051;-80
2022/01/29 00:43:02;;;;;;;69.55;51.70;;;6.80;99.90;;;;;;5138745;27;20411;-74
2022/01/29 00:45:28;;;;;;;64.68;50.72;;;6.80;99.90;;;;;;5152547;27;20060;-80
2022/01/29 00:47:54;;;;;;;71.97;51.33;;;6.80;99.90;;;;;;5145739;27;20076;-78
2022/01/29 00:50:20;;;;;;;63.20;49.78;;;6.80;99.90;;;;;;5131117;27;20047;-78
2022/01/29 00:52:47;;;;;;;65.10;51.13;;;6.90;99.90;;;;;;5135307;27;20539;-78
2022/01/29 00:55:13;;;;;;;65.15;51.75;;;6.90;99.90;;;;;;5150506;27;20038;-77
2022/01/29 00:57:40;;;;;;;66.10;50.95;;;6.90;99.90;;;;;;5147971;27;20388;-79
2022/01/29 01:00:08;;;;;;;70.85;52.63;;;6.80;99.90;;;;;;5130588;28;20054;-77
2022/01/29 01:02:35;;;;;;;65.88;51.45;;;6.80;99.90;;;;;;5131117;27;20051;-79
2022/01/29 01:05:01;;;;;;;67.40;51.47;;;6.80;99.90;;;;;;5092922;27;1100251;-80
2022/01/29 01:07:27;;;;;;;71.40;52.88;;;6.80;99.90;;;;;;5135186;27;20051;-78
2022/01/29 01:09:53;;;;;;;69.40;52.60;;;6.80;99.90;;;;;;5153573;27;20031;-79
2022/01/29 01:12:19;;;;;;;70.15;52.58;;;6.80;99.90;;;;;;5138999;27;20131;-78
2022/01/29 01:14:45;;;;;;;68.15;52.65;;;6.80;99.90;;;;;;5153435;27;20042;-78
2022/01/29 01:17:11;;;;;;;75.90;53.38;;;6.80;99.90;;;;;;5152661;27;20045;-78
2022/01/29 01:19:37;;;;;;;75.75;53.97;;;6.80;99.90;;;;;;5132819;27;20391;-77
2022/01/29 01:22:03;;;;;;;73.47;55.40;;;6.80;99.90;;;;;;5141202;27;20473;-79
2022/01/29 01:24:29;;;;;;;70.03;53.70;;;6.80;99.90;;;;;;5132430;27;20054;-79
2022/01/29 01:26:55;;;;;;;79.10;54.97;;;6.70;99.90;;;;;;5146252;27;20488;-79
2022/01/29 01:29:21;;;;;;;74.30;53.50;;;6.70;99.90;;;;;;5149592;27;20066;-79
2022/01/29 01:31:47;;;;;;;76.72;54.28;;;6.70;99.90;;;;;;5137364;27;20043;-78
2022/01/29 01:34:15;;;;;;;76.72;55.67;;;6.70;99.90;;;;;;5144959;27;20050;-79
2022/01/29 01:36:49;;;;;;;79.00;55.15;;;6.70;99.90;;;;;;5157071;27;20038;-78
2022/01/29 01:39:19;;;;;;;76.38;54.38;;;6.70;99.90;;;;;;5145543;27;20043;-80
2022/01/29 01:41:55;;;;;;;79.75;53.83;;;6.70;99.90;;;;;;5135965;27;20047;-79
2022/01/29 01:44:21;;;;;;;76.00;53.38;;;6.70;99.90;;;;;;5135198;27;20110;-79
2022/01/29 01:46:47;;;;;;;78.03;54.28;;;6.70;99.90;;;;;;5136107;27;20039;-79
2022/01/29 01:49:14;;;;;;;77.85;54.22;;;6.70;99.90;;;;;;5143331;27;20039;-79
2022/01/29 01:51:41;;;;;;;77.50;54.88;;;6.70;99.90;;;;;;5135838;27;20109;-79
2022/01/29 01:54:06;;;;;;;75.00;51.75;;;6.70;99.90;;;;;;5143644;27;20050;-79
2022/01/29 01:56:32;;;;;;;77.65;52.53;;;6.70;99.90;;;;;;5156172;27;20118;-78
2022/01/29 01:58:58;;;;;;;77.38;51.58;;;6.70;99.90;;;;;;5154849;27;20049;-79
2022/01/29 02:01:24;;;;;;;73.35;49.60;;;6.70;99.90;;;;;;5155832;27;20092;-79
2022/01/29 02:03:50;;;;;;;73.93;49.60;;;6.70;99.90;;;;;;5153682;27;20053;-78
2022/01/29 02:06:17;;;;;;;73.50;50.17;;;6.80;99.90;;;;;;5135091;27;20035;-79
2022/01/29 02:08:42;;;;;;;70.22;47.70;;;6.70;99.90;;;;;;5135527;27;20051;-78
2022/01/29 02:11:09;;;;;;;68.38;47.28;;;6.70;99.90;;;;;;5135668;27;20161;-80
2022/01/29 02:13:35;;;;;;;69.65;47.78;;;6.70;99.90;;;;;;5144100;27;20123;-79
2022/01/29 02:16:05;;;;;;;68.20;47.53;;;6.70;99.90;;;;;;5154699;27;20050;-79
2022/01/29 02:18:31;;;;;;;66.07;45.00;;;6.80;99.90;;;;;;5146337;27;20043;-79
2022/01/29 02:20:58;;;;;;;62.55;44.38;;;6.80;99.90;;;;;;5145652;27;20062;-79
2022/01/29 02:23:24;;;;;;;64.28;44.55;;;6.80;99.90;;;;;;5148399;27;20047;-79
2022/01/29 02:25:51;;;;;;;63.65;43.03;;;6.80;99.90;;;;;;5135082;27;20480;-79
2022/01/29 02:28:19;;;;;;;62.58;43.08;;;6.80;99.90;;;;;;5136531;27;20045;-79
2022/01/29 02:30:49;;;;;;;61.95;44.15;;;6.80;99.90;;;;;;5117490;27;20376;-79
2022/01/29 02:33:16;;;;;;;60.75;42.80;;;6.80;99.90;;;;;;5138445;27;20050;-74
2022/01/29 02:35:45;;;;;;;64.43;43.65;;;6.80;99.90;;;;;;5154423;27;20395;-79
2022/01/29 02:38:13;;;;;;;66.32;43.58;;;6.80;99.90;;;;;;5133609;27;20043;-80
2022/01/29 02:40:50;;;;;;;66.63;43.17;;;6.90;99.90;;;;;;5133768;27;20074;-78
2022/01/29 02:43:18;;;;;;;61.90;42.05;;;6.80;99.90;;;;;;5136033;27;20525;-74
2022/01/29 02:45:45;;;;;;;59.33;41.90;;;6.80;99.90;;;;;;5154723;27;20039;-79
2022/01/29 02:48:12;;;;;;;62.47;42.88;;;6.80;99.90;;;;;;5138301;27;20047;-78
2022/01/29 02:50:38;;;;;;;62.92;42.10;;;6.90;99.90;;;;;;5151636;27;20403;-79
2022/01/29 02:53:04;;;;;;;63.47;42.42;;;6.90;99.90;;;;;;5139799;27;20046;-79
2022/01/29 02:55:30;;;;;;;69.40;44.88;;;6.90;99.90;;;;;;5153154;27;20054;-80
2022/01/29 02:57:56;;;;;;;61.47;43.17;;;6.90;99.90;;;;;;5145494;27;20399;-79
2022/01/29 03:00:23;;;;;;;65.00;43.22;;;6.90;99.90;;;;;;5134289;27;20091;-79
2022/01/29 03:02:49;;;;;;;61.20;43.03;;;6.90;99.90;;;;;;5133396;27;20496;-80
2022/01/29 03:05:14;;;;;;;65.25;44.28;;;6.90;99.90;;;;;;5134075;27;20062;-80
2022/01/29 03:07:40;;;;;;;63.42;44.03;;;6.90;99.90;;;;;;5133587;27;20051;-78
2022/01/29 03:10:07;;;;;;;63.20;43.42;;;7.00;99.90;;;;;;5152446;27;20070;-79
2022/01/29 03:12:34;;;;;;;65.93;43.42;;;7.00;99.90;;;;;;5154673;27;20054;-79
2022/01/29 03:15:00;;;;;;;67.75;42.92;;;7.00;99.90;;;;;;5146598;27;20125;-76
2022/01/29 03:17:26;;;;;;;66.47;43.58;;;7.00;99.90;;;;;;5151868;27;20061;-80
2022/01/29 03:19:53;;;;;;;61.83;40.55;;;7.00;99.90;;;;;;5133149;27;20046;-79
2022/01/29 03:22:19;;;;;;;61.13;41.17;;;7.00;99.90;;;;;;5147781;27;20061;-73
2022/01/29 03:24:45;;;;;;;59.72;41.03;;;7.00;99.90;;;;;;5137686;27;20047;-79
2022/01/29 03:27:11;;;;;;;60.03;39.80;;;7.00;99.90;;;;;;5134562;27;20115;-79
2022/01/29 03:29:37;;;;;;;60.10;40.20;;;7.00;99.90;;;;;;5138205;27;20031;-79
2022/01/29 03:32:04;;;;;;;60.00;39.90;;;7.10;99.90;;;;;;5144949;27;20050;-79
2022/01/29 03:34:30;;;;;;;58.67;39.75;;;7.00;99.90;;;;;;5153398;27;20503;-80
2022/01/29 03:36:56;;;;;;;56.95;38.80;;;7.10;99.90;;;;;;5143644;27;20050;-77
2022/01/29 03:39:25;;;;;;;55.08;37.80;;;7.10;99.90;;;;;;5139303;27;20532;-73
2022/01/29 03:41:51;;;;;;;55.83;38.22;;;7.10;99.90;;;;;;5130360;27;20042;-79
2022/01/29 03:44:17;;;;;;;53.40;37.67;;;7.10;99.90;;;;;;5154237;27;20095;-79
2022/01/29 03:46:43;;;;;;;55.63;37.30;;;7.10;99.90;;;;;;5144999;27;20038;-77
2022/01/29 03:49:09;;;;;;;59.38;37.75;;;7.20;99.90;;;;;;5138675;27;20487;-79
2022/01/29 03:51:34;;;;;;;52.50;36.08;;;7.20;99.90;;;;;;5138200;27;20053;-78
2022/01/29 03:54:00;;;;;;;55.28;36.55;;;7.20;99.90;;;;;;5135208;27;20046;-79
2022/01/29 03:56:26;;;;;;;53.47;36.70;;;7.20;99.90;;;;;;5133831;27;20043;-77
2022/01/29 03:58:51;;;;;;;55.60;37.10;;;7.20;99.90;;;;;;5132263;27;20035;-79
2022/01/29 04:01:17;;;;;;;57.58;37.13;;;7.20;99.90;;;;;;5133179;27;20047;-79
2022/01/29 04:03:43;;;;;;;54.22;36.85;;;7.20;99.90;;;;;;5133006;27;20181;-79
2022/01/29 04:06:09;;;;;;;53.78;37.50;;;7.20;99.90;;;;;;5152733;27;20047;-80
2022/01/29 04:08:40;;;;;;;55.78;36.30;;;7.30;99.90;;;;;;5153065;27;20049;-80
2022/01/29 04:11:06;;;;;;;;;;;7.20;99.90;;;;;;5133919;27;20510;-79
2022/01/29 04:13:32;;;;;;;57.25;38.08;;;7.20;99.90;;;;;;5132931;27;19926;-79
2022/01/29 04:15:58;;;;;;;56.88;37.67;;;7.30;99.90;;;;;;5132683;27;20047;-79
2022/01/29 04:18:23;;;;;;;60.60;37.58;;;7.30;99.90;;;;;;5133119;28;20043;-79
2022/01/29 04:20:49;;;;;;;56.13;38.75;;;7.30;99.90;;;;;;5165066;27;20414;-80
2022/01/29 04:23:15;;;;;;;58.00;38.35;;;7.30;99.90;;;;;;5132947;27;20104;-79
2022/01/29 04:25:40;;;;;;;59.53;36.92;;;7.30;99.90;;;;;;5146597;27;20123;-80
2022/01/29 04:28:09;;;;;;;57.08;37.78;;;7.30;99.90;;;;;;5153891;27;20046;-79
2022/01/29 04:30:44;;;;;;;58.92;37.53;;;7.30;99.90;;;;;;5139059;27;20043;-79
2022/01/29 04:33:42;;;;;;;60.78;39.17;;;7.40;99.90;;;;;;5132654;27;20054;-80
2022/01/29 04:36:05;;;;;;;61.70;38.15;;;7.30;99.90;;;;;;5146883;27;20066;-80
2022/01/29 04:38:31;;;;;;;62.10;38.58;;;7.30;99.90;;;;;;5144326;27;20036;-78
2022/01/29 04:41:00;;;;;;;59.90;38.92;;;7.40;99.90;;;;;;5133614;27;20096;-79
2022/01/29 04:43:26;;;;;;;63.05;39.75;;;7.40;99.90;;;;;;5132829;27;20031;-79
2022/01/29 04:45:52;;;;;;;65.55;40.10;;;7.40;99.90;;;;;;5150215;27;20098;-79
2022/01/29 04:48:18;;;;;;;62.83;39.28;;;7.40;99.90;;;;;;5153510;27;20054;-79
2022/01/29 04:50:43;;;;;;;62.20;39.28;;;7.40;99.90;;;;;;5136818;27;20064;-79
2022/01/29 04:53:09;;;;;;;65.05;41.00;;;7.40;99.90;;;;;;5133158;27;20403;-79
2022/01/29 04:55:36;;;;;;;65.20;40.20;;;7.40;99.90;;;;;;5146538;27;20053;-79
2022/01/29 04:58:02;;;;;;;62.85;39.30;;;7.40;99.90;;;;;;5150333;27;20050;-79
2022/01/29 05:00:28;;;;;;;61.28;39.90;;;7.40;99.90;;;;;;5143062;27;20039;-78
2022/01/29 05:02:56;;;;;;;61.80;38.80;;;7.40;99.90;;;;;;5132469;28;20043;-79
2022/01/29 05:05:22;;;;;;;67.18;41.15;;;7.40;99.90;;;;;;5136217;27;20069;-79
2022/01/29 05:07:48;;;;;;;61.13;38.50;;;7.50;99.90;;;;;;5152992;27;20083;-79
2022/01/29 05:10:14;;;;;;;61.75;39.88;;;7.50;99.90;;;;;;5145453;27;20039;-79
2022/01/29 05:12:53;;;;;;;65.28;41.90;;;7.40;99.90;;;;;;5136982;27;20043;-79
2022/01/29 05:15:31;;;;;;;62.30;40.15;;;7.50;99.90;;;;;;5135596;27;20047;-80
2022/01/29 05:28:54;;;;;;;60.13;39.63;;;7.50;99.90;;;;;;5135511;27;20043;-78
2022/01/29 05:31:20;;;;;;;63.33;39.78;;;7.50;99.90;;;;;;5134815;27;20129;-80
2022/01/29 05:33:45;;;;;;;62.75;40.72;;;7.50;99.90;;;;;;5141658;27;20046;-79
2022/01/29 05:36:11;;;;;;;66.75;40.65;;;7.50;99.90;;;;;;5152504;27;20464;-78
2022/01/29 05:38:37;;;;;;;62.22;40.28;;;7.50;99.90;;;;;;5133907;27;20468;-72
2022/01/29 05:41:04;;;;;;;65.85;42.63;;;7.50;99.90;;;;;;5135867;27;20122;-79
2022/01/29 05:43:30;;;;;;;64.35;41.50;;;7.50;99.90;;;;;;5138165;27;20043;-79
2022/01/29 05:45:56;;;;;;;64.00;41.22;;;7.50;99.90;;;;;;5134202;27;20096;-79
2022/01/29 05:48:21;;;;;;;67.03;41.45;;;7.50;99.90;;;;;;5136051;27;20050;-79
2022/01/29 05:50:47;;;;;;;61.92;41.47;;;7.50;99.90;;;;;;5135628;27;20056;-79
2022/01/29 05:53:13;;;;;;;66.40;41.08;;;7.50;99.90;;;;;;5135929;27;20042;-79
2022/01/29 05:55:39;;;;;;;65.28;41.08;;;7.60;99.90;;;;;;5135143;27;20075;-73
2022/01/29 05:58:04;;;;;;;60.38;38.60;;;7.60;99.90;;;;;;5136640;27;20073;-79
2022/01/29 06:00:30;;;;;;;59.35;40.22;;;7.60;99.90;;;;;;5155519;27;20045;-79
2022/01/29 06:03:07;;;;;;;63.10;40.97;;;7.60;99.90;;;;;;5135112;27;20079;-77
2022/01/29 06:05:34;;;;;;;56.03;37.83;;;7.60;99.90;;;;;;5115079;28;20059;-79
2022/01/29 06:08:00;;;;;;;57.85;38.97;;;7.60;99.90;;;;;;5114672;27;20047;-75
2022/01/29 06:10:26;;;;;;;58.42;38.67;;;7.60;99.90;;;;;;5153213;27;20046;-79
2022/01/29 06:13:08;;;;;;;58.72;38.58;;;7.70;99.90;;;;;;5133848;27;20065;-79
2022/01/29 06:15:40;;;;;;;56.13;38.20;;;7.70;99.90;;;;;;5123388;27;20380;-79
2022/01/29 06:18:07;;;;;;;56.65;37.97;;;7.70;99.90;;;;;;5155468;27;20078;-76
2022/01/29 06:20:34;;;;;;;46.90;34.22;;;7.70;99.90;;;;;;5137280;27;20050;-79
2022/01/29 06:23:02;;;;;;;48.05;34.45;;;7.80;99.90;;;;;;5143970;27;20058;-80
2022/01/29 06:25:28;;;;;;;48.40;34.60;;;7.80;99.90;;;;;;5141532;27;20085;-80
2022/01/29 06:27:55;;;;;;;49.65;34.28;;;7.80;99.90;;;;;;5134183;27;20042;-79
2022/01/29 06:30:20;;;;;;;47.53;33.03;;;7.80;99.90;;;;;;5129549;27;20043;-80
2022/01/29 06:32:46;;;;;;;41.33;32.15;;;7.90;99.90;;;;;;5133059;27;20039;-79
2022/01/29 06:35:12;;;;;;;41.70;32.40;;;7.90;99.90;;;;;;5134339;27;20118;-80
2022/01/29 06:37:38;;;;;;;43.95;32.33;;;7.90;99.90;;;;;;5135057;27;20505;-79
2022/01/29 06:40:04;;;;;;;41.80;30.90;;;8.00;99.90;;;;;;5151514;27;20058;-80
2022/01/29 06:42:30;;;;;;;39.85;30.05;;;8.00;99.90;;;;;;5146812;27;20585;-80
2022/01/29 06:44:56;;;;;;;36.75;29.13;;;8.00;99.90;;;;;;5134113;27;20051;-80
2022/01/29 06:47:21;;;;;;;36.42;28.08;;;8.10;99.90;;;;;;5141522;27;20046;-80
2022/01/29 06:49:47;;;;;;;37.47;28.90;;;8.10;99.90;;;;;;5155163;27;20119;-78
2022/01/29 06:52:13;;;;;;;36.58;28.42;;;8.10;99.90;;;;;;5148204;27;20496;-80
2022/01/29 06:54:39;;;;;;;38.65;27.83;;;8.10;99.90;;;;;;5142603;27;20050;-80
2022/01/29 06:57:05;;;;;;;32.72;25.90;;;8.20;99.90;;;;;;5151552;27;20038;-80
2022/01/29 06:59:30;;;;;;;34.85;26.80;;;8.20;99.90;;;;;;5133907;27;20104;-80
2022/01/29 07:01:56;;;;;;;33.67;27.15;;;8.20;99.90;;;;;;5133673;27;20043;-80
2022/01/29 07:04:22;;;;;;;33.17;25.92;;;8.20;99.90;;;;;;5134426;27;20216;-80
2022/01/29 07:06:47;;;;;;;32.25;24.95;;;8.30;99.90;;;;;;5132835;27;20193;-73
2022/01/29 07:09:13;;;;;;;29.00;23.73;;;8.30;99.90;;;;;;5143458;27;20038;-80
2022/01/29 07:11:42;;;;;;;28.77;24.27;;;8.40;99.90;;;;;;5134855;27;20047;-80
2022/01/29 07:14:08;;;;;;;30.17;24.10;;;8.40;99.90;;;;;;5132584;27;20092;-79
2022/01/29 07:16:35;;;;;;;31.50;23.77;;;8.40;99.90;;;;;;5136428;27;20050;-80
2022/01/29 07:19:03;;;;;;;32.20;23.50;;;8.40;99.90;;;;;;5145370;27;20117;-77
2022/01/29 07:21:29;;;;;;;27.48;22.90;;;8.40;99.90;;;;;;5150872;27;20418;-80
2022/01/29 07:23:55;;;;;;;29.63;24.23;;;8.40;99.90;;;;;;5151752;27;20445;-76
2022/01/29 07:26:21;;;;;;;29.50;22.73;;;8.40;99.90;;;;;;5132376;27;20043;-77
2022/01/29 07:28:46;;;;;;;30.27;23.10;;;8.40;99.90;;;;;;5133561;27;20043;-80
2022/01/29 07:31:12;;;;;;;25.92;22.70;;;8.40;99.90;;;;;;5133053;27;20054;-76
2022/01/29 07:33:38;;;;;;;25.88;22.25;;;8.40;99.90;;;;;;5137559;27;20050;-80
2022/01/29 07:36:04;;;;;;;25.77;21.35;;;8.50;99.90;;;;;;5159226;27;20084;-80
2022/01/29 07:38:30;;;;;;;28.08;21.95;;;8.50;99.90;;;;;;5133496;27;20102;-80
2022/01/29 07:40:56;;;;;;;25.23;21.80;;;8.50;99.90;;;;;;5148932;27;20035;-77
2022/01/29 07:43:22;;;;;;;29.23;21.73;;;8.50;99.90;;;;;;5148935;27;20041;-84
2022/01/29 07:45:48;;;;;;;28.65;20.33;;;8.50;99.90;;;;;;5151358;27;20094;-80
2022/01/29 07:48:14;;;;;;;25.73;20.65;;;8.50;99.90;;;;;;5152899;27;20035;-82
2022/01/29 07:50:39;;;;;;;26.83;20.40;;;8.60;99.90;;;;;;5113156;28;20050;-82
2022/01/29 07:53:05;;;;;;;24.33;20.77;;;8.50;99.90;;;;;;5112441;28;20047;-82
2022/01/29 07:55:31;;;;;;;27.35;20.98;;;8.60;99.90;;;;;;5113172;28;20043;-83
2022/01/29 07:57:58;;;;;;;23.98;20.45;;;8.60;99.90;;;;;;5119055;27;20035;-81
2022/01/29 08:00:24;;;;;;;25.95;20.92;;;8.60;99.90;;;;;;5133479;27;20088;-80
2022/01/29 08:02:50;;;;;;;26.25;20.20;;;8.70;99.90;;;;;;5132644;27;20046;-82
2022/01/29 08:05:16;;;;;;;23.88;20.17;;;8.70;99.90;;;;;;5132926;27;20063;-81
2022/01/29 08:07:42;;;;;;;24.45;20.33;;;8.60;99.90;;;;;;5133120;27;20051;-82
2022/01/29 08:10:08;;;;;;;24.23;20.33;;;8.70;99.90;;;;;;5133065;27;20365;-82
2022/01/29 08:12:34;;;;;;;26.80;21.13;;;8.70;99.90;;;;;;5133298;27;20047;-80
2022/01/29 08:15:01;;;;;;;27.25;20.88;;;8.70;99.90;;;;;;5132240;27;20047;-81
2022/01/29 08:17:26;;;;;;;27.98;21.00;;;8.70;99.90;;;;;;5131648;27;20047;-83
2022/01/29 08:19:52;;;;;;;24.77;20.40;;;8.70;99.90;;;;;;5138748;27;20046;-81
2022/01/29 08:22:18;;;;;;;25.52;21.50;;;8.70;99.90;;;;;;5132551;28;20049;-83
2022/01/29 08:24:44;;;;;;;26.33;21.25;;;8.80;99.90;;;;;;5139041;27;20391;-81
2022/01/29 08:27:10;;;;;;;25.33;20.25;;;8.70;99.90;;;;;;5153168;27;20038;-82
2022/01/29 08:29:36;;;;;;;26.27;20.15;;;8.70;99.90;;;;;;5137813;27;20039;-82
2022/01/29 08:32:03;;;;;;;29.33;19.83;;;8.70;99.90;;;;;;5136689;27;20052;-82
2022/01/29 08:34:29;;;;;;;24.67;19.80;;;8.80;99.90;;;;;;5154039;27;20060;-82
2022/01/29 08:36:58;;;;;;;25.13;18.77;;;8.80;99.90;;;;;;5150953;27;20055;-81
2022/01/29 08:39:24;;;;;;;24.30;18.83;;;8.80;99.90;;;;;;5142593;27;20546;-82
2022/01/29 08:41:50;;;;;;;23.35;18.80;;;8.80;99.90;;;;;;5155966;27;20133;-79
2022/01/29 08:44:17;;;;;;;22.95;18.13;;;8.80;99.90;;;;;;5136000;27;20096;-82
2022/01/29 08:46:43;;;;;;;21.38;17.15;;;8.90;99.90;;;;;;5136853;27;20043;-76
2022/01/29 08:49:08;;;;;;;20.73;17.88;;;8.90;99.90;;;;;;5154893;27;20044;-82
2022/01/29 08:51:34;;;;;;;20.58;16.70;;;8.90;99.90;;;;;;5137140;27;20384;-82
2022/01/29 08:54:00;;;;;;;21.20;16.52;;;8.90;99.90;;;;;;5153977;27;20491;-74
2022/01/29 08:56:26;;;;;;;21.83;16.38;;;9.00;99.90;;;;;;5136463;27;20039;-80
2022/01/29 08:58:52;;;;;;;20.92;15.57;;;9.00;99.90;;;;;;5169267;27;20491;-82
2022/01/29 09:01:17;;;;;;;17.50;15.70;;;9.00;99.90;;;;;;5146883;27;20039;-76
2022/01/29 09:03:43;;;;;;;16.70;14.93;;;9.10;99.90;;;;;;5136054;27;20099;-80
2022/01/29 09:06:09;;;;;;;20.48;15.48;;;9.10;99.90;;;;;;5134836;27;20097;-82
2022/01/29 09:08:36;;;;;;;18.63;14.98;;;9.10;99.90;;;;;;5136204;27;20468;-82
2022/01/29 09:11:02;;;;;;;16.38;14.40;;;9.10;99.90;;;;;;5126098;27;20110;-74
2022/01/29 09:13:28;;;;;;;18.63;15.02;;;9.10;99.90;;;;;;5116268;28;20083;-82
2022/01/29 09:15:55;;;;;;;15.50;13.90;;;9.20;99.90;;;;;;5127139;27;20047;-80
2022/01/29 09:18:21;;;;;;;20.08;15.05;;;9.20;99.90;;;;;;5135679;27;20043;-81
2022/01/29 09:20:47;;;;;;;15.73;13.85;;;9.20;99.90;;;;;;5141622;27;20039;-80
2022/01/29 09:23:12;;;;;;;17.70;14.65;;;9.30;99.90;;;;;;5115196;28;20075;-82
2022/01/29 09:25:39;;;;;;;16.42;14.43;;;9.30;99.90;;;;;;5147130;27;20039;-81
2022/01/29 09:28:06;;;;;;;20.25;15.27;;;9.30;99.90;;;;;;5135891;27;20046;-74
2022/01/29 09:30:33;;;;;;;16.50;14.30;;;9.30;99.90;;;;;;5149886;27;20148;-81
2022/01/29 09:32:59;;;;;;;15.93;13.70;;;9.30;99.90;;;;;;5136221;27;20178;-80
2022/01/29 09:35:26;;;;;;;16.67;14.07;;;9.40;99.90;;;;;;5150139;27;20042;-80
2022/01/29 09:37:52;;;;;;;16.70;14.30;;;9.40;99.90;;;;;;5126829;27;20046;-82
2022/01/29 09:40:18;;;;;;;15.95;13.73;;;9.40;99.90;;;;;;5147987;27;20039;-82
2022/01/29 09:42:46;;;;;;;14.05;12.57;;;9.40;99.90;;;;;;5138042;27;20512;-82
2022/01/29 09:45:13;;;;;;;14.98;13.48;;;9.40;99.90;;;;;;5139885;27;20051;-77
2022/01/29 09:47:42;;;;;;;14.88;13.30;;;9.40;99.90;;;;;;5156524;27;20211;-82
2022/01/29 09:50:08;;;;;;;14.82;13.18;;;9.40;99.90;;;;;;5155123;27;20087;-73
2022/01/29 09:52:34;;;;;;;13.45;12.05;;;9.50;99.90;;;;;;5145218;27;20036;-78
2022/01/29 09:54:59;;;;;;;14.48;12.95;;;9.50;99.90;;;;;;5136887;27;20058;-91
2022/01/29 09:57:26;;;;;;;13.50;12.30;;;9.50;99.90;;;;;;5133808;27;20039;-80
2022/01/29 09:59:52;;;;;;;12.23;11.02;;;9.50;99.90;;;;;;5135931;27;20050;-82
2022/01/29 10:02:19;;;;;;;12.55;10.80;;;9.60;99.90;;;;;;5134356;27;20484;-78
2022/01/29 10:04:50;;;;;;;11.38;10.23;;;9.60;99.90;;;;;;5136051;27;20039;-81
2022/01/29 10:07:24;;;;;;;12.02;10.90;;;9.60;99.90;;;;;;5134990;27;20079;-79
2022/01/29 10:09:50;;;;;;;11.15;10.00;;;9.60;99.90;;;;;;5138360;27;20073;-71
2022/01/29 10:12:16;;;;;;;11.43;10.25;;;9.70;99.90;;;;;;5136471;27;20074;-79
2022/01/29 10:14:46;;;;;;;10.60;9.52;;;9.70;99.90;;;;;;5140378;27;20039;-82
2022/01/29 10:17:12;;;;;;;10.93;9.87;;;9.80;99.90;;;;;;5146305;27;20498;-80
2022/01/29 10:19:37;;;;;;;11.23;9.55;;;9.80;99.90;;;;;;5143480;27;20273;-81
2022/01/29 10:22:03;;;;;;;10.88;9.77;;;9.80;99.90;;;;;;5134692;27;20369;-81
2022/01/29 10:24:29;;;;;;;9.68;8.68;;;9.90;99.90;;;;;;5152993;27;20738;-80
2022/01/29 10:26:55;;;;;;;9.55;8.55;;;9.90;99.90;;;;;;5155923;27;20075;-81
2022/01/29 10:29:25;;;;;;;9.95;8.55;;;9.90;99.90;;;;;;5127047;27;20035;-81
2022/01/29 10:31:56;;;;;;;9.87;8.33;;;10.00;99.90;;;;;;5135657;27;20403;-80
2022/01/29 10:34:24;;;;;;;9.85;8.25;;;10.00;99.90;;;;;;5135933;27;20371;-81
2022/01/29 10:37:22;;;;;;;8.85;7.95;;;10.00;99.90;;;;;;5148957;27;20054;-81
2022/01/29 10:40:00;;;;;;;8.68;7.78;;;10.00;99.90;;;;;;5136288;27;20114;-81
2022/01/29 10:42:27;;;;;;;8.95;7.85;;;10.00;99.90;;;;;;5151429;27;20087;-81
2022/01/29 10:44:55;;;;;;;8.70;7.90;;;10.00;99.90;;;;;;5155890;27;20046;-81
2022/01/29 10:47:21;;;;;;;9.27;7.43;;;10.00;99.90;;;;;;5134550;27;20407;-81
2022/01/29 10:49:59;;;;;;;9.02;7.32;;;10.10;99.90;;;;;;5135144;27;20111;-81
2022/01/29 10:52:30;;;;;;;7.72;6.93;;;10.10;99.90;;;;;;5152657;27;20471;-81
2022/01/29 10:55:02;;;;;;;8.77;7.65;;;10.10;99.90;;;;;;5145792;27;20036;-81
2022/01/29 10:57:36;;;;;;;8.02;7.22;;;10.10;99.90;;;;;;5142036;27;20126;-81
2022/01/29 11:00:06;;;;;;;9.50;7.30;;;10.10;99.90;;;;;;5154360;27;20443;-81
2022/01/29 11:02:32;;;;;;;10.32;7.55;;;10.20;99.90;;;;;;5134648;27;20116;-80
2022/01/29 11:05:01;;;;;;;9.38;6.90;;;10.20;99.90;;;;;;5134726;27;20050;-79
2022/01/29 11:07:29;;;;;;;7.55;6.80;;;10.20;99.90;;;;;;5151172;27;20046;-80
2022/01/29 11:09:56;;;;;;;7.30;6.60;;;10.30;99.90;;;;;;5155456;27;20126;-81
2022/01/29 11:12:26;;;;;;;7.45;6.47;;;10.30;99.90;;;;;;5129507;27;20086;-82
2022/01/29 11:14:56;;;;;;;9.73;6.55;;;10.30;99.90;;;;;;5147295;27;20057;-82
2022/01/29 11:17:29;;;;;;;7.95;6.40;;;10.30;99.90;;;;;;5146547;27;20105;-80
2022/01/29 11:19:55;;;;;;;8.48;6.03;;;10.40;99.90;;;;;;5145940;27;20052;-74
2022/01/29 11:22:40;;;;;;;8.48;6.00;;;10.40;99.90;;;;;;5121128;27;20036;-81
2022/01/29 11:25:17;;;;;;;8.32;6.25;;;10.40;99.90;;;;;;5110406;28;20104;-80
2022/01/29 11:27:43;;;;;;;8.13;5.80;;;10.40;99.90;;;;;;5147757;27;20047;-81
2022/01/29 11:30:08;;;;;;;7.22;4.88;;;10.50;99.90;;;;;;5136300;27;20039;-76
2022/01/29 11:32:40;;;;;;;7.25;5.05;;;10.50;99.90;;;;;;5116815;27;20536;-81
2022/01/29 11:35:19;;;;;;;5.75;5.07;;;10.60;99.90;;;;;;5132102;27;20042;-81
2022/01/29 11:37:46;;;;;;;7.78;4.55;;;10.60;99.90;;;;;;5151638;27;20042;-81
2022/01/29 11:40:36;;;;;;;6.13;4.70;;;10.70;99.90;;;;;;5144627;27;20115;-80
2022/01/29 11:43:07;;;;;;;6.75;4.32;;;10.70;99.90;;;;;;5126894;27;20065;-79
2022/01/29 11:45:39;;;;;;;8.15;4.20;;;10.70;99.90;;;;;;5109034;28;20127;-80
2022/01/29 11:48:51;;;;;;;7.43;3.97;;;10.70;99.90;;;;;;5134254;27;20504;-81
2022/01/29 11:51:39;;;;;;;5.95;3.90;;;10.70;99.90;;;;;;5147931;27;20049;-80
2022/01/29 11:54:05;;;;;;;5.60;4.28;;;10.60;99.90;;;;;;5136345;27;20038;-82
2022/01/29 11:56:36;;;;;;;6.75;3.60;;;10.60;99.90;;;;;;5149966;27;20101;-81
2022/01/29 11:59:20;;;;;;;5.97;3.60;;;10.60;99.90;;;;;;5133373;27;20039;-81
2022/01/29 12:01:54;;;;;;;6.53;3.83;;;10.70;99.90;;;;;;5137994;27;20030;-80
2022/01/29 12:04:22;;;;;;;6.72;3.88;;;10.70;99.90;;;;;;5145682;27;20497;-81
2022/01/29 12:07:07;;;;;;;11.52;5.55;;;10.70;99.90;;;;;;5137793;27;20047;-81
2022/01/29 12:09:47;;;;;;;7.60;4.32;;;10.70;99.90;;;;;;5128910;27;20140;-82
2022/01/29 12:12:16;;;;;;;8.35;3.65;;;10.70;99.90;;;;;;5140356;27;20038;-79
2022/01/29 12:14:42;;;;;;;6.90;3.20;;;10.70;99.90;;;;;;5151187;27;20094;-79
2022/01/29 12:17:08;;;;;;;5.80;3.10;;;10.80;99.90;;;;;;5146253;27;20365;-81
2022/01/29 12:19:44;;;;;;;7.68;3.17;;;10.80;99.90;;;;;;5124831;27;20035;-81
2022/01/29 12:22:12;;;;;;;9.88;3.85;;;10.90;99.90;;;;;;5123445;27;20057;-81
2022/01/29 12:24:41;;;;;;;7.80;3.38;;;10.90;99.90;;;;;;5133309;27;20049;-81
2022/01/29 12:27:08;;;;;;;9.45;5.47;;;11.00;99.90;;;;;;5148446;27;20050;-81
2022/01/29 12:29:34;;;;;;;6.32;2.15;;;11.00;99.90;;;;;;5119219;27;20041;-80
2022/01/29 12:32:00;;;;;;;5.13;2.20;;;10.90;99.90;;;;;;5132822;27;20076;-81
2022/01/29 12:34:28;;;;;;;5.30;2.28;;;11.00;99.90;;;;;;5140697;27;20039;-74
2022/01/29 12:37:11;;;;;;;5.30;2.28;;;10.90;99.90;;;;;;5133868;27;20089;-80
2022/01/29 12:39:38;;;;;;;4.45;2.42;;;10.90;99.90;;;;;;5136574;27;20031;-81
2022/01/29 12:44:41;;;;;;;5.55;2.42;;;11.00;99.90;;;;;;5145985;27;20103;-81
2022/01/29 12:47:08;;;;;;;7.18;2.40;;;10.90;99.90;;;;;;5133135;27;20039;-81
2022/01/29 12:49:43;;;;;;;5.32;2.13;;;10.90;99.90;;;;;;5138513;27;20068;-80
2022/01/29 12:52:15;;;;;;;6.07;2.38;;;11.00;99.90;;;;;;5153194;27;20046;-81
2022/01/29 12:54:50;;;;;;;4.65;2.28;;;11.00;99.90;;;;;;5144895;27;20043;-82